sensor_id;sensor_type;location;lat;lon;timestamp;P1;durP1;ratioP1;P2;durP2;ratioP2
9166;SDS011;4618;48.818;9.088;2023-07-30T00:00:48;1.10;;;1.00;;
9166;SDS011;4618;48.818;9.088;2023-07-30T00:03:15;1.67;;;1.00;;
9166;SDS011;4618;48.818;9.088;2023-07-30T00:05:40;3.03;;;1.10;;
9166;SDS011;4618;48.818;9.088;2023-07-30T00:08:06;1.30;;;1.20;;
9166;SDS011;4618;48.818;9.088;2023-07-30T00:10:32;1.93;;;0.83;;
9166;SDS011;4618;48.818;9.088;2023-07-30T00:13:00;1.40;;;1.00;;
9166;SDS011;4618;48.818;9.088;2023-07-30T00:15:26;1.87;;;1.07;;
9166;SDS011;4618;48.818;9.088;2023-07-30T00:17:51;1.63;;;0.87;;
9166;SDS011;4618;48.818;9.088;2023-07-30T00:20:17;2.07;;;1.10;;
9166;SDS011;4618;48.818;9.088;2023-07-30T00:22:42;2.37;;;1.00;;
9166;SDS011;4618;48.818;9.088;2023-07-30T00:25:08;1.90;;;0.90;;
9166;SDS011;4618;48.818;9.088;2023-07-30T00:27:34;1.03;;;0.80;;
9166;SDS011;4618;48.818;9.088;2023-07-30T00:29:59;0.97;;;0.87;;
9166;SDS011;4618;48.818;9.088;2023-07-30T00:32:25;1.20;;;0.90;;
9166;SDS011;4618;48.818;9.088;2023-07-30T00:34:51;1.03;;;1.00;;
9166;SDS011;4618;48.818;9.088;2023-07-30T00:37:16;1.57;;;1.20;;
9166;SDS011;4618;48.818;9.088;2023-07-30T00:39:42;0.90;;;0.90;;
9166;SDS011;4618;48.818;9.088;2023-07-30T00:42:07;1.10;;;0.97;;
9166;SDS011;4618;48.818;9.088;2023-07-30T00:44:33;1.53;;;1.07;;
9166;SDS011;4618;48.818;9.088;2023-07-30T00:46:58;1.23;;;1.20;;
9166;SDS011;4618;48.818;9.088;2023-07-30T00:49:24;2.00;;;1.20;;
9166;SDS011;4618;48.818;9.088;2023-07-30T00:51:49;1.30;;;1.20;;
9166;SDS011;4618;48.818;9.088;2023-07-30T00:54:15;1.60;;;1.50;;
9166;SDS011;4618;48.818;9.088;2023-07-30T00:56:41;2.00;;;1.50;;
9166;SDS011;4618;48.818;9.088;2023-07-30T00:59:15;1.60;;;1.50;;
9166;SDS011;4618;48.818;9.088;2023-07-30T01:01:41;1.43;;;1.33;;
9166;SDS011;4618;48.818;9.088;2023-07-30T01:04:07;1.87;;;1.53;;
9166;SDS011;4618;48.818;9.088;2023-07-30T01:06:34;2.10;;;1.87;;
9166;SDS011;4618;48.818;9.088;2023-07-30T01:08:59;2.40;;;1.87;;
9166;SDS011;4618;48.818;9.088;2023-07-30T01:11:25;1.70;;;1.57;;
9166;SDS011;4618;48.818;9.088;2023-07-30T01:13:51;1.93;;;1.83;;
9166;SDS011;4618;48.818;9.088;2023-07-30T01:16:18;2.37;;;2.10;;
9166;SDS011;4618;48.818;9.088;2023-07-30T01:18:44;4.30;;;2.40;;
9166;SDS011;4618;48.818;9.088;2023-07-30T01:21:10;2.37;;;2.10;;
9166;SDS011;4618;48.818;9.088;2023-07-30T01:23:35;2.07;;;1.97;;
9166;SDS011;4618;48.818;9.088;2023-07-30T01:26:07;2.23;;;2.07;;
9166;SDS011;4618;48.818;9.088;2023-07-30T01:28:41;2.30;;;2.20;;
9166;SDS011;4618;48.818;9.088;2023-07-30T01:31:10;4.77;;;2.80;;
9166;SDS011;4618;48.818;9.088;2023-07-30T01:33:40;3.43;;;2.57;;
9166;SDS011;4618;48.818;9.088;2023-07-30T01:36:06;3.10;;;2.80;;
9166;SDS011;4618;48.818;9.088;2023-07-30T01:38:33;4.83;;;2.93;;
9166;SDS011;4618;48.818;9.088;2023-07-30T01:41:00;4.03;;;3.00;;
9166;SDS011;4618;48.818;9.088;2023-07-30T01:43:25;3.10;;;2.83;;
9166;SDS011;4618;48.818;9.088;2023-07-30T01:45:51;3.60;;;3.30;;
9166;SDS011;4618;48.818;9.088;2023-07-30T01:48:16;3.43;;;3.13;;
9166;SDS011;4618;48.818;9.088;2023-07-30T01:50:42;3.30;;;3.00;;
9166;SDS011;4618;48.818;9.088;2023-07-30T01:53:08;3.27;;;2.80;;
9166;SDS011;4618;48.818;9.088;2023-07-30T01:55:33;3.23;;;2.90;;
9166;SDS011;4618;48.818;9.088;2023-07-30T01:57:59;3.40;;;2.67;;
9166;SDS011;4618;48.818;9.088;2023-07-30T02:00:24;2.97;;;2.77;;
9166;SDS011;4618;48.818;9.088;2023-07-30T02:02:50;3.07;;;2.60;;
9166;SDS011;4618;48.818;9.088;2023-07-30T02:05:16;5.53;;;2.70;;
9166;SDS011;4618;48.818;9.088;2023-07-30T02:07:41;2.80;;;2.60;;
9166;SDS011;4618;48.818;9.088;2023-07-30T02:10:07;3.40;;;2.70;;
9166;SDS011;4618;48.818;9.088;2023-07-30T02:12:33;2.90;;;2.43;;
9166;SDS011;4618;48.818;9.088;2023-07-30T02:14:58;3.03;;;2.43;;
9166;SDS011;4618;48.818;9.088;2023-07-30T02:17:24;2.50;;;2.30;;
9166;SDS011;4618;48.818;9.088;2023-07-30T02:19:49;2.90;;;2.60;;
9166;SDS011;4618;48.818;9.088;2023-07-30T02:22:15;2.47;;;2.30;;
9166;SDS011;4618;48.818;9.088;2023-07-30T02:24:41;2.17;;;2.00;;
9166;SDS011;4618;48.818;9.088;2023-07-30T02:27:06;3.00;;;2.70;;
9166;SDS011;4618;48.818;9.088;2023-07-30T02:29:32;4.07;;;2.70;;
9166;SDS011;4618;48.818;9.088;2023-07-30T02:31:57;2.57;;;2.37;;
9166;SDS011;4618;48.818;9.088;2023-07-30T02:34:24;2.27;;;2.07;;
9166;SDS011;4618;48.818;9.088;2023-07-30T02:36:50;3.20;;;2.80;;
9166;SDS011;4618;48.818;9.088;2023-07-30T02:39:15;3.13;;;2.40;;
9166;SDS011;4618;48.818;9.088;2023-07-30T02:41:41;4.23;;;2.93;;
9166;SDS011;4618;48.818;9.088;2023-07-30T02:44:06;5.60;;;2.70;;
9166;SDS011;4618;48.818;9.088;2023-07-30T02:46:32;3.00;;;2.73;;
9166;SDS011;4618;48.818;9.088;2023-07-30T02:48:57;2.97;;;2.10;;
9166;SDS011;4618;48.818;9.088;2023-07-30T02:51:23;2.20;;;2.00;;
9166;SDS011;4618;48.818;9.088;2023-07-30T02:53:51;2.87;;;2.20;;
9166;SDS011;4618;48.818;9.088;2023-07-30T02:56:18;2.43;;;2.23;;
9166;SDS011;4618;48.818;9.088;2023-07-30T02:58:43;2.53;;;2.33;;
9166;SDS011;4618;48.818;9.088;2023-07-30T03:01:09;2.33;;;2.20;;
9166;SDS011;4618;48.818;9.088;2023-07-30T03:03:35;2.53;;;2.30;;
9166;SDS011;4618;48.818;9.088;2023-07-30T03:06:00;3.77;;;2.10;;
9166;SDS011;4618;48.818;9.088;2023-07-30T03:08:26;3.00;;;2.40;;
9166;SDS011;4618;48.818;9.088;2023-07-30T03:10:51;2.83;;;2.63;;
9166;SDS011;4618;48.818;9.088;2023-07-30T03:13:17;2.33;;;2.13;;
9166;SDS011;4618;48.818;9.088;2023-07-30T03:15:43;2.50;;;2.10;;
9166;SDS011;4618;48.818;9.088;2023-07-30T03:18:09;2.40;;;2.20;;
9166;SDS011;4618;48.818;9.088;2023-07-30T03:20:34;2.67;;;2.47;;
9166;SDS011;4618;48.818;9.088;2023-07-30T03:23:00;2.73;;;2.50;;
9166;SDS011;4618;48.818;9.088;2023-07-30T03:25:25;2.80;;;2.50;;
9166;SDS011;4618;48.818;9.088;2023-07-30T03:27:51;3.13;;;2.77;;
9166;SDS011;4618;48.818;9.088;2023-07-30T03:30:16;5.23;;;3.00;;
9166;SDS011;4618;48.818;9.088;2023-07-30T03:32:42;3.10;;;2.70;;
9166;SDS011;4618;48.818;9.088;2023-07-30T03:35:07;2.77;;;2.57;;
9166;SDS011;4618;48.818;9.088;2023-07-30T03:37:33;3.20;;;2.90;;
9166;SDS011;4618;48.818;9.088;2023-07-30T03:39:59;3.10;;;2.57;;
9166;SDS011;4618;48.818;9.088;2023-07-30T03:42:24;2.60;;;2.40;;
9166;SDS011;4618;48.818;9.088;2023-07-30T03:44:50;2.63;;;2.43;;
9166;SDS011;4618;48.818;9.088;2023-07-30T03:47:16;3.43;;;2.50;;
9166;SDS011;4618;48.818;9.088;2023-07-30T03:49:41;2.33;;;2.10;;
9166;SDS011;4618;48.818;9.088;2023-07-30T03:52:07;2.90;;;2.70;;
9166;SDS011;4618;48.818;9.088;2023-07-30T03:54:32;2.53;;;2.33;;
9166;SDS011;4618;48.818;9.088;2023-07-30T03:56:58;2.87;;;2.43;;
9166;SDS011;4618;48.818;9.088;2023-07-30T03:59:23;2.77;;;2.57;;
9166;SDS011;4618;48.818;9.088;2023-07-30T04:01:49;4.93;;;2.40;;
9166;SDS011;4618;48.818;9.088;2023-07-30T04:04:15;3.47;;;2.60;;
9166;SDS011;4618;48.818;9.088;2023-07-30T04:06:40;3.50;;;2.73;;
9166;SDS011;4618;48.818;9.088;2023-07-30T04:09:06;3.90;;;2.90;;
9166;SDS011;4618;48.818;9.088;2023-07-30T04:11:33;4.97;;;3.03;;
9166;SDS011;4618;48.818;9.088;2023-07-30T04:13:58;2.87;;;2.40;;
9166;SDS011;4618;48.818;9.088;2023-07-30T04:16:24;3.17;;;2.87;;
9166;SDS011;4618;48.818;9.088;2023-07-30T04:18:49;3.23;;;3.00;;
9166;SDS011;4618;48.818;9.088;2023-07-30T04:21:15;3.30;;;3.00;;
9166;SDS011;4618;48.818;9.088;2023-07-30T04:23:40;4.70;;;3.03;;
9166;SDS011;4618;48.818;9.088;2023-07-30T04:26:06;2.97;;;2.77;;
9166;SDS011;4618;48.818;9.088;2023-07-30T04:28:32;2.53;;;2.40;;
9166;SDS011;4618;48.818;9.088;2023-07-30T04:30:58;3.33;;;2.90;;
9166;SDS011;4618;48.818;9.088;2023-07-30T04:33:23;2.80;;;2.60;;
9166;SDS011;4618;48.818;9.088;2023-07-30T04:35:51;4.70;;;2.40;;
9166;SDS011;4618;48.818;9.088;2023-07-30T04:38:17;3.50;;;2.50;;
9166;SDS011;4618;48.818;9.088;2023-07-30T04:40:42;2.53;;;2.33;;
9166;SDS011;4618;48.818;9.088;2023-07-30T04:43:08;3.77;;;2.50;;
9166;SDS011;4618;48.818;9.088;2023-07-30T04:45:33;2.30;;;1.80;;
9166;SDS011;4618;48.818;9.088;2023-07-30T04:47:59;2.60;;;1.67;;
9166;SDS011;4618;48.818;9.088;2023-07-30T04:50:24;3.00;;;2.00;;
9166;SDS011;4618;48.818;9.088;2023-07-30T04:52:51;2.40;;;1.90;;
9166;SDS011;4618;48.818;9.088;2023-07-30T04:55:16;2.97;;;2.00;;
9166;SDS011;4618;48.818;9.088;2023-07-30T04:57:42;2.10;;;1.87;;
9166;SDS011;4618;48.818;9.088;2023-07-30T05:00:08;2.00;;;1.80;;
9166;SDS011;4618;48.818;9.088;2023-07-30T05:02:34;2.93;;;1.77;;
9166;SDS011;4618;48.818;9.088;2023-07-30T05:04:59;2.20;;;2.00;;
9166;SDS011;4618;48.818;9.088;2023-07-30T05:07:25;2.40;;;2.10;;
9166;SDS011;4618;48.818;9.088;2023-07-30T05:09:50;2.90;;;1.90;;
9166;SDS011;4618;48.818;9.088;2023-07-30T05:12:16;2.43;;;2.03;;
9166;SDS011;4618;48.818;9.088;2023-07-30T05:14:41;1.87;;;1.77;;
9166;SDS011;4618;48.818;9.088;2023-07-30T05:17:07;3.60;;;2.10;;
9166;SDS011;4618;48.818;9.088;2023-07-30T05:19:33;2.80;;;1.83;;
9166;SDS011;4618;48.818;9.088;2023-07-30T05:21:58;1.70;;;1.60;;
9166;SDS011;4618;48.818;9.088;2023-07-30T05:24:27;2.03;;;1.63;;
9166;SDS011;4618;48.818;9.088;2023-07-30T05:26:52;5.77;;;1.80;;
9166;SDS011;4618;48.818;9.088;2023-07-30T05:29:18;2.47;;;1.67;;
9166;SDS011;4618;48.818;9.088;2023-07-30T05:31:44;1.70;;;1.60;;
9166;SDS011;4618;48.818;9.088;2023-07-30T05:34:09;1.30;;;1.20;;
9166;SDS011;4618;48.818;9.088;2023-07-30T05:36:35;1.70;;;1.20;;
9166;SDS011;4618;48.818;9.088;2023-07-30T05:39:00;1.30;;;1.20;;
9166;SDS011;4618;48.818;9.088;2023-07-30T05:41:26;1.93;;;1.80;;
9166;SDS011;4618;48.818;9.088;2023-07-30T05:43:51;1.47;;;1.30;;
9166;SDS011;4618;48.818;9.088;2023-07-30T05:46:17;2.30;;;1.50;;
9166;SDS011;4618;48.818;9.088;2023-07-30T05:48:42;1.60;;;1.50;;
9166;SDS011;4618;48.818;9.088;2023-07-30T05:51:08;1.70;;;1.60;;
9166;SDS011;4618;48.818;9.088;2023-07-30T05:53:34;2.07;;;1.90;;
9166;SDS011;4618;48.818;9.088;2023-07-30T05:55:59;1.80;;;1.70;;
9166;SDS011;4618;48.818;9.088;2023-07-30T05:58:25;1.90;;;1.60;;
9166;SDS011;4618;48.818;9.088;2023-07-30T06:00:50;2.27;;;1.67;;
9166;SDS011;4618;48.818;9.088;2023-07-30T06:03:16;2.87;;;1.70;;
9166;SDS011;4618;48.818;9.088;2023-07-30T06:05:42;1.83;;;1.73;;
9166;SDS011;4618;48.818;9.088;2023-07-30T06:08:08;1.50;;;1.40;;
9166;SDS011;4618;48.818;9.088;2023-07-30T06:10:34;2.10;;;1.63;;
9166;SDS011;4618;48.818;9.088;2023-07-30T06:13:01;1.73;;;1.40;;
9166;SDS011;4618;48.818;9.088;2023-07-30T06:15:27;1.87;;;1.20;;
9166;SDS011;4618;48.818;9.088;2023-07-30T06:17:53;1.60;;;1.50;;
9166;SDS011;4618;48.818;9.088;2023-07-30T06:20:19;1.40;;;1.30;;
9166;SDS011;4618;48.818;9.088;2023-07-30T06:22:44;1.73;;;1.50;;
9166;SDS011;4618;48.818;9.088;2023-07-30T06:25:10;1.50;;;1.40;;
9166;SDS011;4618;48.818;9.088;2023-07-30T06:27:35;1.50;;;1.40;;
9166;SDS011;4618;48.818;9.088;2023-07-30T06:30:01;2.30;;;1.40;;
9166;SDS011;4618;48.818;9.088;2023-07-30T06:32:27;2.40;;;1.30;;
9166;SDS011;4618;48.818;9.088;2023-07-30T06:34:52;1.43;;;1.30;;
9166;SDS011;4618;48.818;9.088;2023-07-30T06:37:18;1.77;;;1.40;;
9166;SDS011;4618;48.818;9.088;2023-07-30T06:39:43;2.60;;;1.20;;
9166;SDS011;4618;48.818;9.088;2023-07-30T06:42:09;1.47;;;1.33;;
9166;SDS011;4618;48.818;9.088;2023-07-30T06:44:35;1.87;;;1.43;;
9166;SDS011;4618;48.818;9.088;2023-07-30T06:47:00;3.10;;;1.20;;
9166;SDS011;4618;48.818;9.088;2023-07-30T06:49:26;1.67;;;1.20;;
9166;SDS011;4618;48.818;9.088;2023-07-30T06:51:52;1.47;;;1.20;;
9166;SDS011;4618;48.818;9.088;2023-07-30T06:54:17;1.10;;;1.00;;
9166;SDS011;4618;48.818;9.088;2023-07-30T06:56:43;1.10;;;1.00;;
9166;SDS011;4618;48.818;9.088;2023-07-30T06:59:08;1.17;;;1.07;;
9166;SDS011;4618;48.818;9.088;2023-07-30T07:01:34;1.13;;;0.97;;
9166;SDS011;4618;48.818;9.088;2023-07-30T07:03:59;0.97;;;0.97;;
9166;SDS011;4618;48.818;9.088;2023-07-30T07:06:25;1.10;;;1.10;;
9166;SDS011;4618;48.818;9.088;2023-07-30T07:08:50;2.40;;;0.90;;
9166;SDS011;4618;48.818;9.088;2023-07-30T07:11:16;1.20;;;1.10;;
9166;SDS011;4618;48.818;9.088;2023-07-30T07:13:42;1.43;;;1.10;;
9166;SDS011;4618;48.818;9.088;2023-07-30T07:16:07;3.40;;;1.00;;
9166;SDS011;4618;48.818;9.088;2023-07-30T07:18:33;1.07;;;0.93;;
9166;SDS011;4618;48.818;9.088;2023-07-30T07:20:58;0.90;;;0.90;;
9166;SDS011;4618;48.818;9.088;2023-07-30T07:23:24;1.97;;;1.00;;
9166;SDS011;4618;48.818;9.088;2023-07-30T07:25:49;1.40;;;1.30;;
9166;SDS011;4618;48.818;9.088;2023-07-30T07:28:16;1.70;;;1.57;;
9166;SDS011;4618;48.818;9.088;2023-07-30T07:30:43;1.53;;;1.20;;
9166;SDS011;4618;48.818;9.088;2023-07-30T07:33:09;2.03;;;1.20;;
9166;SDS011;4618;48.818;9.088;2023-07-30T07:35:37;1.10;;;1.10;;
9166;SDS011;4618;48.818;9.088;2023-07-30T07:38:04;0.90;;;0.90;;
9166;SDS011;4618;48.818;9.088;2023-07-30T07:40:29;1.47;;;1.33;;
9166;SDS011;4618;48.818;9.088;2023-07-30T07:42:55;1.07;;;1.07;;
9166;SDS011;4618;48.818;9.088;2023-07-30T07:45:21;2.27;;;1.13;;
9166;SDS011;4618;48.818;9.088;2023-07-30T07:47:46;1.20;;;1.20;;
9166;SDS011;4618;48.818;9.088;2023-07-30T07:50:12;2.10;;;1.40;;
9166;SDS011;4618;48.818;9.088;2023-07-30T07:52:37;1.73;;;1.37;;
9166;SDS011;4618;48.818;9.088;2023-07-30T07:55:03;1.53;;;1.20;;
9166;SDS011;4618;48.818;9.088;2023-07-30T07:57:29;3.17;;;1.30;;
9166;SDS011;4618;48.818;9.088;2023-07-30T07:59:56;2.77;;;1.10;;
9166;SDS011;4618;48.818;9.088;2023-07-30T08:02:21;1.27;;;0.93;;
9166;SDS011;4618;48.818;9.088;2023-07-30T08:04:47;1.50;;;1.20;;
9166;SDS011;4618;48.818;9.088;2023-07-30T08:07:13;1.40;;;1.03;;
9166;SDS011;4618;48.818;9.088;2023-07-30T08:09:38;1.07;;;0.90;;
9166;SDS011;4618;48.818;9.088;2023-07-30T08:12:04;1.40;;;1.00;;
9166;SDS011;4618;48.818;9.088;2023-07-30T08:14:30;0.80;;;0.80;;
9166;SDS011;4618;48.818;9.088;2023-07-30T08:16:56;2.87;;;1.00;;
9166;SDS011;4618;48.818;9.088;2023-07-30T08:19:22;1.83;;;0.90;;
9166;SDS011;4618;48.818;9.088;2023-07-30T08:21:47;1.47;;;1.00;;
9166;SDS011;4618;48.818;9.088;2023-07-30T08:24:13;1.00;;;1.00;;
9166;SDS011;4618;48.818;9.088;2023-07-30T08:26:38;1.17;;;0.90;;
9166;SDS011;4618;48.818;9.088;2023-07-30T08:29:04;1.73;;;1.00;;
9166;SDS011;4618;48.818;9.088;2023-07-30T08:31:31;1.33;;;1.00;;
9166;SDS011;4618;48.818;9.088;2023-07-30T08:33:56;1.07;;;1.00;;
9166;SDS011;4618;48.818;9.088;2023-07-30T08:36:22;0.90;;;0.90;;
9166;SDS011;4618;48.818;9.088;2023-07-30T08:38:48;1.53;;;0.90;;
9166;SDS011;4618;48.818;9.088;2023-07-30T08:41:14;2.67;;;1.20;;
9166;SDS011;4618;48.818;9.088;2023-07-30T08:43:40;1.20;;;1.10;;
9166;SDS011;4618;48.818;9.088;2023-07-30T08:46:05;1.10;;;1.00;;
9166;SDS011;4618;48.818;9.088;2023-07-30T08:48:31;0.83;;;0.83;;
9166;SDS011;4618;48.818;9.088;2023-07-30T08:50:57;0.93;;;0.90;;
9166;SDS011;4618;48.818;9.088;2023-07-30T08:53:26;1.70;;;1.30;;
9166;SDS011;4618;48.818;9.088;2023-07-30T08:55:54;1.77;;;1.23;;
9166;SDS011;4618;48.818;9.088;2023-07-30T08:58:21;2.47;;;0.90;;
9166;SDS011;4618;48.818;9.088;2023-07-30T09:00:49;1.40;;;1.10;;
9166;SDS011;4618;48.818;9.088;2023-07-30T09:03:17;1.20;;;1.10;;
9166;SDS011;4618;48.818;9.088;2023-07-30T09:05:43;1.27;;;1.17;;
9166;SDS011;4618;48.818;9.088;2023-07-30T09:08:09;2.60;;;1.10;;
9166;SDS011;4618;48.818;9.088;2023-07-30T09:10:35;2.83;;;1.10;;
9166;SDS011;4618;48.818;9.088;2023-07-30T09:13:01;1.40;;;1.10;;
9166;SDS011;4618;48.818;9.088;2023-07-30T09:15:31;1.67;;;1.10;;
9166;SDS011;4618;48.818;9.088;2023-07-30T09:18:04;1.07;;;1.07;;
9166;SDS011;4618;48.818;9.088;2023-07-30T09:20:40;3.80;;;1.10;;
9166;SDS011;4618;48.818;9.088;2023-07-30T09:23:07;1.20;;;1.10;;
9166;SDS011;4618;48.818;9.088;2023-07-30T09:25:34;2.90;;;1.20;;
9166;SDS011;4618;48.818;9.088;2023-07-30T09:28:00;1.30;;;1.10;;
9166;SDS011;4618;48.818;9.088;2023-07-30T09:30:26;1.57;;;1.07;;
9166;SDS011;4618;48.818;9.088;2023-07-30T09:32:52;1.40;;;1.30;;
9166;SDS011;4618;48.818;9.088;2023-07-30T09:35:22;1.20;;;1.10;;
9166;SDS011;4618;48.818;9.088;2023-07-30T09:37:50;1.40;;;1.30;;
9166;SDS011;4618;48.818;9.088;2023-07-30T09:40:30;2.40;;;1.30;;
9166;SDS011;4618;48.818;9.088;2023-07-30T09:43:03;1.83;;;1.40;;
9166;SDS011;4618;48.818;9.088;2023-07-30T09:45:32;2.60;;;1.20;;
9166;SDS011;4618;48.818;9.088;2023-07-30T09:48:00;1.30;;;1.20;;
9166;SDS011;4618;48.818;9.088;2023-07-30T09:50:28;1.50;;;1.40;;
9166;SDS011;4618;48.818;9.088;2023-07-30T09:52:54;1.30;;;1.20;;
9166;SDS011;4618;48.818;9.088;2023-07-30T09:55:21;4.10;;;1.20;;
9166;SDS011;4618;48.818;9.088;2023-07-30T09:57:46;1.87;;;1.40;;
9166;SDS011;4618;48.818;9.088;2023-07-30T10:00:12;2.80;;;1.13;;
9166;SDS011;4618;48.818;9.088;2023-07-30T10:02:38;3.83;;;1.33;;
9166;SDS011;4618;48.818;9.088;2023-07-30T10:05:08;1.60;;;1.50;;
9166;SDS011;4618;48.818;9.088;2023-07-30T10:07:44;1.47;;;1.33;;
9166;SDS011;4618;48.818;9.088;2023-07-30T10:10:16;4.00;;;1.50;;
9166;SDS011;4618;48.818;9.088;2023-07-30T10:12:44;2.20;;;1.17;;
9166;SDS011;4618;48.818;9.088;2023-07-30T10:15:10;2.63;;;1.20;;
9166;SDS011;4618;48.818;9.088;2023-07-30T10:17:36;1.60;;;1.50;;
9166;SDS011;4618;48.818;9.088;2023-07-30T10:22:57;1.83;;;1.30;;
9166;SDS011;4618;48.818;9.088;2023-07-30T10:28:07;2.53;;;1.40;;
9166;SDS011;4618;48.818;9.088;2023-07-30T10:30:33;1.70;;;1.33;;
9166;SDS011;4618;48.818;9.088;2023-07-30T10:35:43;2.90;;;1.60;;
9166;SDS011;4618;48.818;9.088;2023-07-30T10:38:14;1.70;;;1.60;;
9166;SDS011;4618;48.818;9.088;2023-07-30T10:40:59;4.23;;;1.53;;
9166;SDS011;4618;48.818;9.088;2023-07-30T10:43:39;2.73;;;1.50;;
9166;SDS011;4618;48.818;9.088;2023-07-30T10:46:06;2.33;;;1.50;;
9166;SDS011;4618;48.818;9.088;2023-07-30T10:48:37;1.15;;;1.08;;
9166;SDS011;4618;48.818;9.088;2023-07-30T10:51:05;4.40;;;1.55;;
9166;SDS011;4618;48.818;9.088;2023-07-30T10:53:31;1.45;;;1.35;;
9166;SDS011;4618;48.818;9.088;2023-07-30T10:56:00;2.28;;;1.50;;
9166;SDS011;4618;48.818;9.088;2023-07-30T10:58:28;1.52;;;1.42;;
9166;SDS011;4618;48.818;9.088;2023-07-30T11:00:55;1.20;;;1.10;;
9166;SDS011;4618;48.818;9.088;2023-07-30T11:03:20;2.80;;;1.33;;
9166;SDS011;4618;48.818;9.088;2023-07-30T11:05:48;1.30;;;1.20;;
9166;SDS011;4618;48.818;9.088;2023-07-30T11:08:14;2.97;;;1.50;;
9166;SDS011;4618;48.818;9.088;2023-07-30T11:10:46;1.90;;;1.40;;
9166;SDS011;4618;48.818;9.088;2023-07-30T11:13:15;2.87;;;1.60;;
9166;SDS011;4618;48.818;9.088;2023-07-30T11:15:44;1.67;;;1.40;;
9166;SDS011;4618;48.818;9.088;2023-07-30T11:18:11;2.90;;;1.80;;
9166;SDS011;4618;48.818;9.088;2023-07-30T11:20:38;4.20;;;1.40;;
9166;SDS011;4618;48.818;9.088;2023-07-30T11:23:22;2.03;;;1.47;;
9166;SDS011;4618;48.818;9.088;2023-07-30T11:25:48;4.13;;;1.50;;
9166;SDS011;4618;48.818;9.088;2023-07-30T11:28:26;3.47;;;1.63;;
9166;SDS011;4618;48.818;9.088;2023-07-30T11:31:03;2.83;;;1.40;;
9166;SDS011;4618;48.818;9.088;2023-07-30T11:33:40;3.23;;;1.40;;
9166;SDS011;4618;48.818;9.088;2023-07-30T11:36:09;4.47;;;1.33;;
9166;SDS011;4618;48.818;9.088;2023-07-30T11:38:40;1.70;;;1.60;;
9166;SDS011;4618;48.818;9.088;2023-07-30T11:41:06;2.50;;;1.60;;
9166;SDS011;4618;48.818;9.088;2023-07-30T11:43:38;2.67;;;1.50;;
9166;SDS011;4618;48.818;9.088;2023-07-30T11:46:08;4.47;;;1.35;;
9166;SDS011;4618;48.818;9.088;2023-07-30T11:48:35;2.22;;;1.30;;
9166;SDS011;4618;48.818;9.088;2023-07-30T11:51:01;2.00;;;1.27;;
9166;SDS011;4618;48.818;9.088;2023-07-30T11:56:16;1.42;;;1.30;;
9166;SDS011;4618;48.818;9.088;2023-07-30T11:58:47;2.72;;;1.15;;
9166;SDS011;4618;48.818;9.088;2023-07-30T12:01:14;3.63;;;1.27;;
9166;SDS011;4618;48.818;9.088;2023-07-30T12:03:40;2.42;;;1.20;;
9166;SDS011;4618;48.818;9.088;2023-07-30T12:06:06;1.98;;;1.42;;
9166;SDS011;4618;48.818;9.088;2023-07-30T12:08:34;1.30;;;1.20;;
9166;SDS011;4618;48.818;9.088;2023-07-30T12:11:04;1.35;;;1.00;;
9166;SDS011;4618;48.818;9.088;2023-07-30T12:13:31;3.30;;;1.30;;
9166;SDS011;4618;48.818;9.088;2023-07-30T12:15:57;1.80;;;1.05;;
9166;SDS011;4618;48.818;9.088;2023-07-30T12:18:24;3.13;;;1.33;;
9166;SDS011;4618;48.818;9.088;2023-07-30T12:20:51;2.05;;;1.13;;
9166;SDS011;4618;48.818;9.088;2023-07-30T12:23:18;0.93;;;0.93;;
9166;SDS011;4618;48.818;9.088;2023-07-30T12:25:44;1.75;;;1.15;;
9166;SDS011;4618;48.818;9.088;2023-07-30T12:28:10;2.58;;;1.10;;
9166;SDS011;4618;48.818;9.088;2023-07-30T12:30:36;2.63;;;1.20;;
9166;SDS011;4618;48.818;9.088;2023-07-30T12:33:04;4.32;;;1.33;;
9166;SDS011;4618;48.818;9.088;2023-07-30T12:35:31;1.50;;;1.40;;
9166;SDS011;4618;48.818;9.088;2023-07-30T12:37:57;2.70;;;1.42;;
9166;SDS011;4618;48.818;9.088;2023-07-30T12:40:23;2.35;;;1.20;;
9166;SDS011;4618;48.818;9.088;2023-07-30T12:42:49;1.20;;;1.10;;
9166;SDS011;4618;48.818;9.088;2023-07-30T12:45:15;1.85;;;1.15;;
9166;SDS011;4618;48.818;9.088;2023-07-30T12:47:41;2.97;;;1.27;;
9166;SDS011;4618;48.818;9.088;2023-07-30T12:50:06;1.80;;;1.30;;
9166;SDS011;4618;48.818;9.088;2023-07-30T12:52:33;2.22;;;1.20;;
9166;SDS011;4618;48.818;9.088;2023-07-30T12:54:59;1.38;;;1.10;;
9166;SDS011;4618;48.818;9.088;2023-07-30T12:57:25;2.45;;;1.30;;
9166;SDS011;4618;48.818;9.088;2023-07-30T12:59:50;1.27;;;1.10;;
9166;SDS011;4618;48.818;9.088;2023-07-30T13:02:16;1.48;;;1.38;;
9166;SDS011;4618;48.818;9.088;2023-07-30T13:04:41;1.13;;;1.05;;
9166;SDS011;4618;48.818;9.088;2023-07-30T13:07:07;0.95;;;0.90;;
9166;SDS011;4618;48.818;9.088;2023-07-30T13:09:33;3.08;;;0.98;;
9166;SDS011;4618;48.818;9.088;2023-07-30T13:11:58;1.42;;;1.00;;
9166;SDS011;4618;48.818;9.088;2023-07-30T13:14:24;2.40;;;1.10;;
9166;SDS011;4618;48.818;9.088;2023-07-30T13:16:50;2.15;;;1.30;;
9166;SDS011;4618;48.818;9.088;2023-07-30T13:19:15;2.75;;;1.13;;
9166;SDS011;4618;48.818;9.088;2023-07-30T13:21:41;1.27;;;0.80;;
9166;SDS011;4618;48.818;9.088;2023-07-30T13:24:06;3.50;;;1.00;;
9166;SDS011;4618;48.818;9.088;2023-07-30T13:26:41;2.08;;;1.13;;
9166;SDS011;4618;48.818;9.088;2023-07-30T13:29:07;3.08;;;1.13;;
9166;SDS011;4618;48.818;9.088;2023-07-30T13:31:32;1.38;;;1.00;;
9166;SDS011;4618;48.818;9.088;2023-07-30T13:33:58;1.67;;;0.95;;
9166;SDS011;4618;48.818;9.088;2023-07-30T13:36:23;1.17;;;0.98;;
9166;SDS011;4618;48.818;9.088;2023-07-30T13:38:49;1.23;;;0.90;;
9166;SDS011;4618;48.818;9.088;2023-07-30T13:41:14;1.58;;;0.98;;
9166;SDS011;4618;48.818;9.088;2023-07-30T13:43:40;2.42;;;1.10;;
9166;SDS011;4618;48.818;9.088;2023-07-30T13:46:05;1.90;;;1.00;;
9166;SDS011;4618;48.818;9.088;2023-07-30T13:48:31;1.75;;;1.17;;
9166;SDS011;4618;48.818;9.088;2023-07-30T13:50:57;2.50;;;1.23;;
9166;SDS011;4618;48.818;9.088;2023-07-30T13:53:22;3.38;;;1.10;;
9166;SDS011;4618;48.818;9.088;2023-07-30T13:55:48;1.85;;;1.00;;
9166;SDS011;4618;48.818;9.088;2023-07-30T13:58:14;2.00;;;1.27;;
9166;SDS011;4618;48.818;9.088;2023-07-30T14:00:40;1.70;;;1.20;;
9166;SDS011;4618;48.818;9.088;2023-07-30T14:03:06;2.30;;;1.20;;
9166;SDS011;4618;48.818;9.088;2023-07-30T14:05:31;1.80;;;1.10;;
9166;SDS011;4618;48.818;9.088;2023-07-30T14:07:57;3.13;;;1.20;;
9166;SDS011;4618;48.818;9.088;2023-07-30T14:10:23;1.83;;;1.20;;
9166;SDS011;4618;48.818;9.088;2023-07-30T14:12:49;1.90;;;1.15;;
9166;SDS011;4618;48.818;9.088;2023-07-30T14:15:15;1.83;;;1.15;;
9166;SDS011;4618;48.818;9.088;2023-07-30T14:17:41;2.47;;;1.10;;
9166;SDS011;4618;48.818;9.088;2023-07-30T14:20:07;2.07;;;1.00;;
9166;SDS011;4618;48.818;9.088;2023-07-30T14:22:33;3.08;;;1.10;;
9166;SDS011;4618;48.818;9.088;2023-07-30T14:24:59;2.47;;;1.00;;
9166;SDS011;4618;48.818;9.088;2023-07-30T14:27:25;2.83;;;1.30;;
9166;SDS011;4618;48.818;9.088;2023-07-30T14:29:51;1.63;;;1.00;;
9166;SDS011;4618;48.818;9.088;2023-07-30T14:32:17;1.15;;;0.90;;
9166;SDS011;4618;48.818;9.088;2023-07-30T14:34:44;2.15;;;1.17;;
9166;SDS011;4618;48.818;9.088;2023-07-30T14:37:10;2.38;;;0.90;;
9166;SDS011;4618;48.818;9.088;2023-07-30T14:39:35;3.15;;;1.08;;
9166;SDS011;4618;48.818;9.088;2023-07-30T14:42:01;1.73;;;0.90;;
9166;SDS011;4618;48.818;9.088;2023-07-30T14:44:27;1.40;;;0.80;;
9166;SDS011;4618;48.818;9.088;2023-07-30T14:46:52;3.72;;;1.08;;
9166;SDS011;4618;48.818;9.088;2023-07-30T14:49:18;2.92;;;1.27;;
9166;SDS011;4618;48.818;9.088;2023-07-30T14:51:44;2.50;;;1.23;;
9166;SDS011;4618;48.818;9.088;2023-07-30T14:54:10;1.75;;;1.10;;
9166;SDS011;4618;48.818;9.088;2023-07-30T14:56:37;1.35;;;1.00;;
9166;SDS011;4618;48.818;9.088;2023-07-30T14:59:03;2.13;;;0.90;;
9166;SDS011;4618;48.818;9.088;2023-07-30T15:01:29;1.80;;;1.00;;
9166;SDS011;4618;48.818;9.088;2023-07-30T15:03:58;2.60;;;1.00;;
9166;SDS011;4618;48.818;9.088;2023-07-30T15:06:24;3.22;;;1.40;;
9166;SDS011;4618;48.818;9.088;2023-07-30T15:08:51;1.50;;;0.82;;
9166;SDS011;4618;48.818;9.088;2023-07-30T15:11:16;2.95;;;1.20;;
9166;SDS011;4618;48.818;9.088;2023-07-30T15:13:42;1.80;;;0.98;;
9166;SDS011;4618;48.818;9.088;2023-07-30T15:16:07;1.50;;;0.80;;
9166;SDS011;4618;48.818;9.088;2023-07-30T15:18:33;3.42;;;1.30;;
9166;SDS011;4618;48.818;9.088;2023-07-30T15:20:58;1.92;;;0.93;;